sensor_id;sensor_type;location;lat;lon;timestamp;P1;durP1;ratioP1;P2;durP2;ratioP2
34282;SDS011;20542;49.828;8.746;2022-10-16T00:00:35;5.00;;;1.33;;
34282;SDS011;20542;49.828;8.746;2022-10-16T00:03:02;0.70;;;0.70;;
34282;SDS011;20542;49.828;8.746;2022-10-16T00:05:28;6.00;;;1.17;;
34282;SDS011;20542;49.828;8.746;2022-10-16T00:07:54;2.85;;;1.50;;
34282;SDS011;20542;49.828;8.746;2022-10-16T00:10:20;2.35;;;1.17;;
34282;SDS011;20542;49.828;8.746;2022-10-16T00:12:45;0.73;;;0.73;;
34282;SDS011;20542;49.828;8.746;2022-10-16T00:15:11;1.25;;;0.80;;
34282;SDS011;20542;49.828;8.746;2022-10-16T00:17:37;3.50;;;0.70;;
34282;SDS011;20542;49.828;8.746;2022-10-16T00:20:02;3.03;;;1.38;;
34282;SDS011;20542;49.828;8.746;2022-10-16T00:22:28;1.58;;;0.77;;
34282;SDS011;20542;49.828;8.746;2022-10-16T00:24:54;1.52;;;0.70;;
34282;SDS011;20542;49.828;8.746;2022-10-16T00:27:19;1.95;;;1.40;;
34282;SDS011;20542;49.828;8.746;2022-10-16T00:29:49;14.65;;;1.42;;
34282;SDS011;20542;49.828;8.746;2022-10-16T00:32:15;2.42;;;1.40;;
34282;SDS011;20542;49.828;8.746;2022-10-16T00:34:40;4.95;;;2.40;;
34282;SDS011;20542;49.828;8.746;2022-10-16T00:37:06;4.75;;;0.70;;
34282;SDS011;20542;49.828;8.746;2022-10-16T00:39:31;2.90;;;1.13;;
34282;SDS011;20542;49.828;8.746;2022-10-16T00:41:57;0.88;;;0.82;;
34282;SDS011;20542;49.828;8.746;2022-10-16T00:44:42;1.42;;;0.80;;
34282;SDS011;20542;49.828;8.746;2022-10-16T00:47:16;1.52;;;1.13;;
34282;SDS011;20542;49.828;8.746;2022-10-16T00:52:47;1.17;;;0.93;;
34282;SDS011;20542;49.828;8.746;2022-10-16T00:55:14;4.97;;;1.25;;
34282;SDS011;20542;49.828;8.746;2022-10-16T00:57:41;4.63;;;0.90;;
34282;SDS011;20542;49.828;8.746;2022-10-16T01:00:09;2.20;;;1.38;;
34282;SDS011;20542;49.828;8.746;2022-10-16T01:02:37;2.15;;;0.80;;
34282;SDS011;20542;49.828;8.746;2022-10-16T01:05:03;5.15;;;0.70;;
34282;SDS011;20542;49.828;8.746;2022-10-16T01:18:28;0.57;;;0.50;;
34282;SDS011;20542;49.828;8.746;2022-10-16T01:23:51;6.05;;;0.60;;
34282;SDS011;20542;49.828;8.746;2022-10-16T01:29:08;1.08;;;0.90;;
34282;SDS011;20542;49.828;8.746;2022-10-16T01:31:44;1.58;;;1.05;;
34282;SDS011;20542;49.828;8.746;2022-10-16T01:34:16;1.35;;;0.88;;
34282;SDS011;20542;49.828;8.746;2022-10-16T01:36:47;0.65;;;0.60;;
34282;SDS011;20542;49.828;8.746;2022-10-16T01:39:24;0.80;;;0.50;;
34282;SDS011;20542;49.828;8.746;2022-10-16T01:41:58;1.00;;;0.77;;
34282;SDS011;20542;49.828;8.746;2022-10-16T01:44:33;1.27;;;0.80;;
34282;SDS011;20542;49.828;8.746;2022-10-16T01:47:01;1.27;;;0.63;;
34282;SDS011;20542;49.828;8.746;2022-10-16T01:49:30;1.75;;;0.95;;
34282;SDS011;20542;49.828;8.746;2022-10-16T01:51:59;0.70;;;0.70;;
34282;SDS011;20542;49.828;8.746;2022-10-16T01:54:27;1.73;;;1.00;;
34282;SDS011;20542;49.828;8.746;2022-10-16T01:56:56;0.65;;;0.50;;
34282;SDS011;20542;49.828;8.746;2022-10-16T01:59:23;0.47;;;0.47;;
34282;SDS011;20542;49.828;8.746;2022-10-16T02:01:52;4.28;;;0.70;;
34282;SDS011;20542;49.828;8.746;2022-10-16T02:04:24;2.08;;;0.60;;
34282;SDS011;20542;49.828;8.746;2022-10-16T02:07:01;1.45;;;0.95;;
34282;SDS011;20542;49.828;8.746;2022-10-16T02:09:26;0.75;;;0.65;;
34282;SDS011;20542;49.828;8.746;2022-10-16T02:11:52;1.70;;;0.55;;
34282;SDS011;20542;49.828;8.746;2022-10-16T02:14:21;2.58;;;0.70;;
34282;SDS011;20542;49.828;8.746;2022-10-16T02:16:49;1.30;;;0.90;;
34282;SDS011;20542;49.828;8.746;2022-10-16T02:19:15;2.70;;;1.10;;
34282;SDS011;20542;49.828;8.746;2022-10-16T02:21:53;2.40;;;1.10;;
34282;SDS011;20542;49.828;8.746;2022-10-16T02:24:35;0.93;;;0.80;;
34282;SDS011;20542;49.828;8.746;2022-10-16T02:30:06;2.40;;;1.07;;
34282;SDS011;20542;49.828;8.746;2022-10-16T02:32:33;3.15;;;1.30;;
34282;SDS011;20542;49.828;8.746;2022-10-16T02:35:00;1.63;;;1.10;;
34282;SDS011;20542;49.828;8.746;2022-10-16T02:37:27;1.60;;;1.20;;
34282;SDS011;20542;49.828;8.746;2022-10-16T02:39:53;1.65;;;1.23;;
34282;SDS011;20542;49.828;8.746;2022-10-16T02:42:20;2.25;;;1.52;;
34282;SDS011;20542;49.828;8.746;2022-10-16T02:44:52;3.08;;;1.60;;
34282;SDS011;20542;49.828;8.746;2022-10-16T02:47:17;1.98;;;1.58;;
34282;SDS011;20542;49.828;8.746;2022-10-16T02:49:43;3.38;;;1.75;;
34282;SDS011;20542;49.828;8.746;2022-10-16T02:52:08;4.18;;;1.75;;
34282;SDS011;20542;49.828;8.746;2022-10-16T02:54:34;2.00;;;1.80;;
34282;SDS011;20542;49.828;8.746;2022-10-16T02:56:59;2.00;;;1.73;;
34282;SDS011;20542;49.828;8.746;2022-10-16T02:59:25;3.00;;;1.83;;
34282;SDS011;20542;49.828;8.746;2022-10-16T03:01:50;4.35;;;1.70;;
34282;SDS011;20542;49.828;8.746;2022-10-16T03:04:16;4.70;;;2.10;;
34282;SDS011;20542;49.828;8.746;2022-10-16T03:06:41;3.03;;;2.28;;
34282;SDS011;20542;49.828;8.746;2022-10-16T03:09:07;6.82;;;2.15;;
34282;SDS011;20542;49.828;8.746;2022-10-16T03:11:32;2.70;;;1.95;;
34282;SDS011;20542;49.828;8.746;2022-10-16T03:13:58;2.40;;;1.90;;
34282;SDS011;20542;49.828;8.746;2022-10-16T03:16:23;3.08;;;2.00;;
34282;SDS011;20542;49.828;8.746;2022-10-16T03:18:49;3.08;;;2.05;;
34282;SDS011;20542;49.828;8.746;2022-10-16T03:21:15;2.05;;;1.85;;
34282;SDS011;20542;49.828;8.746;2022-10-16T03:23:41;3.30;;;2.10;;
34282;SDS011;20542;49.828;8.746;2022-10-16T03:26:06;2.00;;;1.83;;
34282;SDS011;20542;49.828;8.746;2022-10-16T03:28:32;2.25;;;2.05;;
34282;SDS011;20542;49.828;8.746;2022-10-16T03:30:57;5.85;;;1.83;;
34282;SDS011;20542;49.828;8.746;2022-10-16T03:33:23;2.42;;;2.00;;
34282;SDS011;20542;49.828;8.746;2022-10-16T03:35:52;3.70;;;2.33;;
34282;SDS011;20542;49.828;8.746;2022-10-16T03:38:19;2.53;;;2.10;;
34282;SDS011;20542;49.828;8.746;2022-10-16T03:40:45;2.50;;;2.30;;
34282;SDS011;20542;49.828;8.746;2022-10-16T03:43:10;3.45;;;2.13;;
34282;SDS011;20542;49.828;8.746;2022-10-16T03:45:36;2.78;;;2.25;;
34282;SDS011;20542;49.828;8.746;2022-10-16T03:48:01;2.95;;;2.13;;
34282;SDS011;20542;49.828;8.746;2022-10-16T03:50:28;4.17;;;2.67;;
34282;SDS011;20542;49.828;8.746;2022-10-16T03:52:54;3.13;;;2.05;;
34282;SDS011;20542;49.828;8.746;2022-10-16T03:55:19;4.18;;;2.20;;
34282;SDS011;20542;49.828;8.746;2022-10-16T03:57:45;6.13;;;2.15;;
34282;SDS011;20542;49.828;8.746;2022-10-16T04:00:11;2.58;;;2.20;;
34282;SDS011;20542;49.828;8.746;2022-10-16T04:02:37;3.55;;;2.33;;
34282;SDS011;20542;49.828;8.746;2022-10-16T04:05:03;3.60;;;3.30;;
34282;SDS011;20542;49.828;8.746;2022-10-16T04:07:29;2.67;;;2.40;;
34282;SDS011;20542;49.828;8.746;2022-10-16T04:09:54;7.78;;;2.60;;
34282;SDS011;20542;49.828;8.746;2022-10-16T04:12:22;3.40;;;2.28;;
34282;SDS011;20542;49.828;8.746;2022-10-16T04:14:47;4.75;;;2.20;;
34282;SDS011;20542;49.828;8.746;2022-10-16T04:17:13;3.95;;;2.40;;
34282;SDS011;20542;49.828;8.746;2022-10-16T04:19:38;4.07;;;2.45;;
34282;SDS011;20542;49.828;8.746;2022-10-16T04:22:04;2.85;;;2.35;;
34282;SDS011;20542;49.828;8.746;2022-10-16T04:24:29;7.65;;;2.75;;
34282;SDS011;20542;49.828;8.746;2022-10-16T04:26:55;3.38;;;2.72;;
34282;SDS011;20542;49.828;8.746;2022-10-16T04:29:20;5.40;;;3.50;;
34282;SDS011;20542;49.828;8.746;2022-10-16T04:31:46;15.48;;;4.57;;
34282;SDS011;20542;49.828;8.746;2022-10-16T04:34:12;11.45;;;6.43;;
34282;SDS011;20542;49.828;8.746;2022-10-16T04:36:38;11.30;;;5.60;;
34282;SDS011;20542;49.828;8.746;2022-10-16T04:39:03;11.57;;;6.22;;
34282;SDS011;20542;49.828;8.746;2022-10-16T04:41:29;11.40;;;6.35;;
34282;SDS011;20542;49.828;8.746;2022-10-16T04:43:54;12.95;;;6.20;;
34282;SDS011;20542;49.828;8.746;2022-10-16T04:46:20;9.30;;;5.63;;
34282;SDS011;20542;49.828;8.746;2022-10-16T04:48:45;7.65;;;3.45;;
34282;SDS011;20542;49.828;8.746;2022-10-16T04:51:11;3.72;;;2.92;;
34282;SDS011;20542;49.828;8.746;2022-10-16T04:53:37;2.60;;;2.15;;
34282;SDS011;20542;49.828;8.746;2022-10-16T04:56:03;6.90;;;4.60;;
34282;SDS011;20542;49.828;8.746;2022-10-16T04:58:28;8.23;;;2.33;;
34282;SDS011;20542;49.828;8.746;2022-10-16T05:00:54;2.47;;;1.80;;
34282;SDS011;20542;49.828;8.746;2022-10-16T05:03:19;5.85;;;2.17;;
34282;SDS011;20542;49.828;8.746;2022-10-16T05:05:45;2.95;;;1.83;;
34282;SDS011;20542;49.828;8.746;2022-10-16T05:08:12;2.53;;;1.75;;
34282;SDS011;20542;49.828;8.746;2022-10-16T05:10:38;5.05;;;1.95;;
34282;SDS011;20542;49.828;8.746;2022-10-16T05:15:31;1.63;;;1.43;;
34282;SDS011;20542;49.828;8.746;2022-10-16T05:17:56;3.15;;;1.52;;
34282;SDS011;20542;49.828;8.746;2022-10-16T05:20:22;2.30;;;1.90;;
34282;SDS011;20542;49.828;8.746;2022-10-16T05:22:48;3.95;;;1.60;;
34282;SDS011;20542;49.828;8.746;2022-10-16T05:25:14;5.38;;;1.70;;
34282;SDS011;20542;49.828;8.746;2022-10-16T05:27:39;2.17;;;1.75;;
34282;SDS011;20542;49.828;8.746;2022-10-16T05:30:05;1.98;;;1.52;;
34282;SDS011;20542;49.828;8.746;2022-10-16T05:32:31;2.05;;;1.80;;
34282;SDS011;20542;49.828;8.746;2022-10-16T05:34:57;1.60;;;1.50;;
34282;SDS011;20542;49.828;8.746;2022-10-16T05:37:24;5.43;;;1.25;;
34282;SDS011;20542;49.828;8.746;2022-10-16T05:39:50;1.77;;;1.48;;
34282;SDS011;20542;49.828;8.746;2022-10-16T05:42:15;2.53;;;1.88;;
34282;SDS011;20542;49.828;8.746;2022-10-16T05:44:41;2.08;;;1.67;;
34282;SDS011;20542;49.828;8.746;2022-10-16T05:47:06;3.17;;;1.73;;
34282;SDS011;20542;49.828;8.746;2022-10-16T05:49:32;8.27;;;2.13;;
34282;SDS011;20542;49.828;8.746;2022-10-16T05:51:57;1.50;;;1.40;;
34282;SDS011;20542;49.828;8.746;2022-10-16T05:54:23;8.82;;;1.73;;
34282;SDS011;20542;49.828;8.746;2022-10-16T05:56:48;2.35;;;2.03;;
34282;SDS011;20542;49.828;8.746;2022-10-16T05:59:14;7.63;;;2.03;;
34282;SDS011;20542;49.828;8.746;2022-10-16T06:01:39;1.77;;;1.42;;
34282;SDS011;20542;49.828;8.746;2022-10-16T06:04:05;1.95;;;1.30;;
34282;SDS011;20542;49.828;8.746;2022-10-16T06:06:31;1.80;;;1.50;;
34282;SDS011;20542;49.828;8.746;2022-10-16T06:08:56;2.80;;;2.00;;
34282;SDS011;20542;49.828;8.746;2022-10-16T06:11:26;7.38;;;1.60;;
34282;SDS011;20542;49.828;8.746;2022-10-16T06:13:54;1.88;;;1.42;;
34282;SDS011;20542;49.828;8.746;2022-10-16T06:16:21;9.63;;;6.72;;
34282;SDS011;20542;49.828;8.746;2022-10-16T06:18:50;5.72;;;3.30;;
34282;SDS011;20542;49.828;8.746;2022-10-16T06:21:21;6.28;;;3.20;;
34282;SDS011;20542;49.828;8.746;2022-10-16T06:23:51;4.32;;;2.33;;
34282;SDS011;20542;49.828;8.746;2022-10-16T06:26:19;6.63;;;2.55;;
34282;SDS011;20542;49.828;8.746;2022-10-16T06:28:46;2.25;;;1.83;;
34282;SDS011;20542;49.828;8.746;2022-10-16T06:31:12;1.97;;;1.77;;
34282;SDS011;20542;49.828;8.746;2022-10-16T06:33:38;2.83;;;1.58;;
34282;SDS011;20542;49.828;8.746;2022-10-16T06:38:39;1.85;;;1.45;;
34282;SDS011;20542;49.828;8.746;2022-10-16T06:41:05;4.25;;;1.67;;
34282;SDS011;20542;49.828;8.746;2022-10-16T06:43:32;2.28;;;1.40;;
34282;SDS011;20542;49.828;8.746;2022-10-16T06:46:00;2.35;;;1.70;;
34282;SDS011;20542;49.828;8.746;2022-10-16T06:48:26;8.93;;;1.50;;
34282;SDS011;20542;49.828;8.746;2022-10-16T06:53:22;2.00;;;1.40;;
34282;SDS011;20542;49.828;8.746;2022-10-16T06:55:48;1.45;;;1.35;;
34282;SDS011;20542;49.828;8.746;2022-10-16T06:58:13;2.25;;;1.38;;
34282;SDS011;20542;49.828;8.746;2022-10-16T07:00:39;3.55;;;1.90;;
34282;SDS011;20542;49.828;8.746;2022-10-16T07:03:04;7.22;;;1.85;;
34282;SDS011;20542;49.828;8.746;2022-10-16T07:05:30;2.03;;;1.52;;
34282;SDS011;20542;49.828;8.746;2022-10-16T07:07:55;7.30;;;1.67;;
34282;SDS011;20542;49.828;8.746;2022-10-16T07:10:21;4.68;;;1.48;;
34282;SDS011;20542;49.828;8.746;2022-10-16T07:12:49;2.90;;;1.85;;
34282;SDS011;20542;49.828;8.746;2022-10-16T07:15:15;3.60;;;1.65;;
34282;SDS011;20542;49.828;8.746;2022-10-16T07:17:40;1.80;;;1.50;;
34282;SDS011;20542;49.828;8.746;2022-10-16T07:20:06;6.00;;;1.50;;
34282;SDS011;20542;49.828;8.746;2022-10-16T07:22:32;3.80;;;1.25;;
34282;SDS011;20542;49.828;8.746;2022-10-16T07:24:57;7.53;;;1.42;;
34282;SDS011;20542;49.828;8.746;2022-10-16T07:27:23;8.05;;;1.75;;
34282;SDS011;20542;49.828;8.746;2022-10-16T07:29:49;1.77;;;1.23;;
34282;SDS011;20542;49.828;8.746;2022-10-16T07:32:14;4.72;;;1.27;;
34282;SDS011;20542;49.828;8.746;2022-10-16T07:34:40;3.60;;;1.75;;
34282;SDS011;20542;49.828;8.746;2022-10-16T07:37:07;2.00;;;1.30;;
34282;SDS011;20542;49.828;8.746;2022-10-16T07:39:32;1.92;;;1.40;;
34282;SDS011;20542;49.828;8.746;2022-10-16T07:41:58;2.13;;;1.30;;
34282;SDS011;20542;49.828;8.746;2022-10-16T07:44:24;2.00;;;1.15;;
34282;SDS011;20542;49.828;8.746;2022-10-16T07:46:49;2.80;;;1.80;;
34282;SDS011;20542;49.828;8.746;2022-10-16T07:49:15;2.45;;;1.20;;
34282;SDS011;20542;49.828;8.746;2022-10-16T07:51:40;2.58;;;1.15;;
34282;SDS011;20542;49.828;8.746;2022-10-16T07:54:07;2.10;;;1.33;;
34282;SDS011;20542;49.828;8.746;2022-10-16T07:56:34;1.33;;;1.17;;
34282;SDS011;20542;49.828;8.746;2022-10-16T07:59:00;3.25;;;1.10;;
34282;SDS011;20542;49.828;8.746;2022-10-16T08:01:25;4.30;;;1.50;;
34282;SDS011;20542;49.828;8.746;2022-10-16T08:03:51;5.47;;;1.48;;
34282;SDS011;20542;49.828;8.746;2022-10-16T08:06:18;2.17;;;1.45;;
34282;SDS011;20542;49.828;8.746;2022-10-16T08:08:45;5.70;;;1.70;;
34282;SDS011;20542;49.828;8.746;2022-10-16T08:11:11;3.35;;;1.35;;
34282;SDS011;20542;49.828;8.746;2022-10-16T08:13:36;4.60;;;1.40;;
34282;SDS011;20542;49.828;8.746;2022-10-16T08:16:02;3.55;;;1.30;;
34282;SDS011;20542;49.828;8.746;2022-10-16T08:18:35;5.28;;;1.42;;
34282;SDS011;20542;49.828;8.746;2022-10-16T08:21:02;7.65;;;1.48;;
34282;SDS011;20542;49.828;8.746;2022-10-16T08:23:29;2.83;;;1.10;;
34282;SDS011;20542;49.828;8.746;2022-10-16T08:25:55;1.80;;;1.08;;
34282;SDS011;20542;49.828;8.746;2022-10-16T08:28:21;1.00;;;0.90;;
34282;SDS011;20542;49.828;8.746;2022-10-16T08:30:48;9.25;;;1.08;;
34282;SDS011;20542;49.828;8.746;2022-10-16T08:33:13;2.53;;;1.23;;
34282;SDS011;20542;49.828;8.746;2022-10-16T08:35:39;2.05;;;1.13;;
34282;SDS011;20542;49.828;8.746;2022-10-16T08:38:05;2.05;;;1.13;;
34282;SDS011;20542;49.828;8.746;2022-10-16T08:40:32;4.13;;;1.55;;
34282;SDS011;20542;49.828;8.746;2022-10-16T08:48:49;17.10;;;2.90;;
34282;SDS011;20542;49.828;8.746;2022-10-16T08:51:23;11.73;;;2.40;;
34282;SDS011;20542;49.828;8.746;2022-10-16T08:53:56;2.58;;;1.75;;
34282;SDS011;20542;49.828;8.746;2022-10-16T08:56:29;5.93;;;2.53;;
34282;SDS011;20542;49.828;8.746;2022-10-16T08:58:55;3.63;;;2.03;;
34282;SDS011;20542;49.828;8.746;2022-10-16T09:01:23;3.65;;;2.03;;
34282;SDS011;20542;49.828;8.746;2022-10-16T09:04:20;4.53;;;1.70;;
34282;SDS011;20542;49.828;8.746;2022-10-16T09:18:58;3.38;;;1.60;;
34282;SDS011;20542;49.828;8.746;2022-10-16T09:21:38;2.85;;;1.45;;
34282;SDS011;20542;49.828;8.746;2022-10-16T09:24:09;2.97;;;1.42;;
34282;SDS011;20542;49.828;8.746;2022-10-16T09:26:39;3.03;;;1.42;;
34282;SDS011;20542;49.828;8.746;2022-10-16T09:29:04;2.50;;;1.40;;
34282;SDS011;20542;49.828;8.746;2022-10-16T09:31:30;5.55;;;1.60;;
34282;SDS011;20542;49.828;8.746;2022-10-16T09:33:59;3.42;;;1.40;;
34282;SDS011;20542;49.828;8.746;2022-10-16T09:36:29;3.80;;;1.73;;
34282;SDS011;20542;49.828;8.746;2022-10-16T09:39:06;2.25;;;1.20;;
34282;SDS011;20542;49.828;8.746;2022-10-16T09:41:37;6.50;;;1.40;;
34282;SDS011;20542;49.828;8.746;2022-10-16T09:44:15;2.88;;;1.85;;
34282;SDS011;20542;49.828;8.746;2022-10-16T09:52:15;3.00;;;1.05;;
34282;SDS011;20542;49.828;8.746;2022-10-16T09:54:51;3.10;;;1.05;;
34282;SDS011;20542;49.828;8.746;2022-10-16T09:57:50;2.10;;;1.20;;
34282;SDS011;20542;49.828;8.746;2022-10-16T10:00:16;1.50;;;1.25;;
34282;SDS011;20542;49.828;8.746;2022-10-16T10:05:25;2.20;;;1.23;;
34282;SDS011;20542;49.828;8.746;2022-10-16T10:07:57;1.55;;;1.25;;
34282;SDS011;20542;49.828;8.746;2022-10-16T10:10:25;3.00;;;1.45;;
34282;SDS011;20542;49.828;8.746;2022-10-16T10:12:53;2.70;;;1.80;;
34282;SDS011;20542;49.828;8.746;2022-10-16T10:15:20;2.53;;;1.42;;
34282;SDS011;20542;49.828;8.746;2022-10-16T10:17:49;1.65;;;1.40;;
34282;SDS011;20542;49.828;8.746;2022-10-16T10:20:24;2.47;;;1.00;;
34282;SDS011;20542;49.828;8.746;2022-10-16T10:22:54;4.22;;;1.52;;
34282;SDS011;20542;49.828;8.746;2022-10-16T10:31:14;2.80;;;1.58;;
34282;SDS011;20542;49.828;8.746;2022-10-16T10:39:51;2.90;;;1.40;;
34282;SDS011;20542;49.828;8.746;2022-10-16T10:47:59;1.50;;;1.30;;
34282;SDS011;20542;49.828;8.746;2022-10-16T10:50:39;18.33;;;7.50;;
34282;SDS011;20542;49.828;8.746;2022-10-16T10:53:14;31.05;;;10.32;;
34282;SDS011;20542;49.828;8.746;2022-10-16T11:01:26;9.75;;;1.60;;
34282;SDS011;20542;49.828;8.746;2022-10-16T11:06:55;2.83;;;1.58;;
34282;SDS011;20542;49.828;8.746;2022-10-16T11:09:27;3.85;;;1.63;;
34282;SDS011;20542;49.828;8.746;2022-10-16T11:12:01;4.57;;;2.60;;
34282;SDS011;20542;49.828;8.746;2022-10-16T11:17:25;2.78;;;1.70;;
34282;SDS011;20542;49.828;8.746;2022-10-16T11:20:20;1.77;;;1.13;;
34282;SDS011;20542;49.828;8.746;2022-10-16T11:25:22;1.42;;;1.00;;
34282;SDS011;20542;49.828;8.746;2022-10-16T11:27:52;2.28;;;1.58;;
34282;SDS011;20542;49.828;8.746;2022-10-16T11:30:52;2.42;;;1.83;;
34282;SDS011;20542;49.828;8.746;2022-10-16T11:38:38;1.92;;;1.20;;
34282;SDS011;20542;49.828;8.746;2022-10-16T11:41:53;2.20;;;1.27;;
34282;SDS011;20542;49.828;8.746;2022-10-16T11:46:27;1.42;;;1.10;;
34282;SDS011;20542;49.828;8.746;2022-10-16T11:49:12;1.52;;;1.10;;
34282;SDS011;20542;49.828;8.746;2022-10-16T11:52:01;1.80;;;1.15;;
34282;SDS011;20542;49.828;8.746;2022-10-16T11:54:51;3.05;;;1.63;;
34282;SDS011;20542;49.828;8.746;2022-10-16T11:57:22;2.65;;;1.20;;
34282;SDS011;20542;49.828;8.746;2022-10-16T11:59:51;2.15;;;1.25;;
34282;SDS011;20542;49.828;8.746;2022-10-16T12:07:43;2.92;;;1.60;;
34282;SDS011;20542;49.828;8.746;2022-10-16T12:10:34;2.35;;;1.30;;
34282;SDS011;20542;49.828;8.746;2022-10-16T12:13:02;2.58;;;1.50;;
34282;SDS011;20542;49.828;8.746;2022-10-16T12:15:48;1.92;;;1.40;;
34282;SDS011;20542;49.828;8.746;2022-10-16T12:18:21;2.25;;;1.75;;
34282;SDS011;20542;49.828;8.746;2022-10-16T12:20:54;5.25;;;1.38;;
34282;SDS011;20542;49.828;8.746;2022-10-16T12:25:54;2.67;;;1.60;;
34282;SDS011;20542;49.828;8.746;2022-10-16T12:28:22;1.48;;;1.02;;
34282;SDS011;20542;49.828;8.746;2022-10-16T12:30:57;2.63;;;1.35;;
34282;SDS011;20542;49.828;8.746;2022-10-16T12:33:26;6.90;;;1.92;;
34282;SDS011;20542;49.828;8.746;2022-10-16T12:35:54;3.92;;;1.98;;
34282;SDS011;20542;49.828;8.746;2022-10-16T12:38:26;3.20;;;1.35;;
